sensor_id;sensor_type;location;lat;lon;timestamp;temperature;humidity
69543;SHT31;56762;49.494;11.768;2023-03-07T00:01:49;2.80;73.44
69543;SHT31;56762;49.494;11.768;2023-03-07T00:04:18;2.87;73.02
69543;SHT31;56762;49.494;11.768;2023-03-07T00:06:47;2.86;73.75
69543;SHT31;56762;49.494;11.768;2023-03-07T00:09:14;2.89;73.73
69543;SHT31;56762;49.494;11.768;2023-03-07T00:11:42;2.87;73.58
69543;SHT31;56762;49.494;11.768;2023-03-07T00:14:11;2.83;74.10
69543;SHT31;56762;49.494;11.768;2023-03-07T00:16:38;2.77;74.12
69543;SHT31;56762;49.494;11.768;2023-03-07T00:19:06;2.79;74.31
69543;SHT31;56762;49.494;11.768;2023-03-07T00:21:35;2.79;74.20
69543;SHT31;56762;49.494;11.768;2023-03-07T00:24:03;2.81;74.58
69543;SHT31;56762;49.494;11.768;2023-03-07T00:26:31;2.81;74.33
69543;SHT31;56762;49.494;11.768;2023-03-07T00:29:05;2.80;74.44
69543;SHT31;56762;49.494;11.768;2023-03-07T00:31:33;2.79;74.58
69543;SHT31;56762;49.494;11.768;2023-03-07T00:34:01;2.81;74.40
69543;SHT31;56762;49.494;11.768;2023-03-07T00:36:29;2.81;74.56
69543;SHT31;56762;49.494;11.768;2023-03-07T00:38:59;2.84;73.97
69543;SHT31;56762;49.494;11.768;2023-03-07T00:41:27;2.86;74.09
69543;SHT31;56762;49.494;11.768;2023-03-07T00:43:55;2.90;73.54
69543;SHT31;56762;49.494;11.768;2023-03-07T00:46:24;2.87;74.00
69543;SHT31;56762;49.494;11.768;2023-03-07T00:48:53;2.86;73.90
69543;SHT31;56762;49.494;11.768;2023-03-07T00:51:22;2.80;74.30
69543;SHT31;56762;49.494;11.768;2023-03-07T00:53:50;2.84;74.02
69543;SHT31;56762;49.494;11.768;2023-03-07T00:56:21;2.80;74.00
69543;SHT31;56762;49.494;11.768;2023-03-07T00:58:49;2.76;73.96
69543;SHT31;56762;49.494;11.768;2023-03-07T01:01:20;2.77;74.12
69543;SHT31;56762;49.494;11.768;2023-03-07T01:03:48;2.80;74.18
69543;SHT31;56762;49.494;11.768;2023-03-07T01:06:21;2.83;74.25
69543;SHT31;56762;49.494;11.768;2023-03-07T01:08:49;2.87;74.28
69543;SHT31;56762;49.494;11.768;2023-03-07T01:11:17;2.86;74.03
69543;SHT31;56762;49.494;11.768;2023-03-07T01:13:46;2.90;73.98
69543;SHT31;56762;49.494;11.768;2023-03-07T01:16:16;2.86;74.01
69543;SHT31;56762;49.494;11.768;2023-03-07T01:18:47;2.86;73.59
69543;SHT31;56762;49.494;11.768;2023-03-07T01:21:18;2.84;73.71
69543;SHT31;56762;49.494;11.768;2023-03-07T01:23:47;2.91;73.39
69543;SHT31;56762;49.494;11.768;2023-03-07T01:26:16;2.90;73.27
69543;SHT31;56762;49.494;11.768;2023-03-07T01:28:48;2.87;73.28
69543;SHT31;56762;49.494;11.768;2023-03-07T01:31:16;2.83;73.82
69543;SHT31;56762;49.494;11.768;2023-03-07T01:33:46;2.83;73.37
69543;SHT31;56762;49.494;11.768;2023-03-07T01:36:16;2.83;72.75
69543;SHT31;56762;49.494;11.768;2023-03-07T01:38:45;2.84;73.02
69543;SHT31;56762;49.494;11.768;2023-03-07T01:41:14;2.84;73.07
69543;SHT31;56762;49.494;11.768;2023-03-07T01:43:43;2.84;73.45
69543;SHT31;56762;49.494;11.768;2023-03-07T01:46:35;2.87;72.70
69543;SHT31;56762;49.494;11.768;2023-03-07T01:49:07;2.80;72.96
69543;SHT31;56762;49.494;11.768;2023-03-07T01:51:39;2.81;73.02
69543;SHT31;56762;49.494;11.768;2023-03-07T01:54:12;2.80;73.04
69543;SHT31;56762;49.494;11.768;2023-03-07T01:56:43;2.81;72.99
69543;SHT31;56762;49.494;11.768;2023-03-07T01:59:14;2.80;73.06
69543;SHT31;56762;49.494;11.768;2023-03-07T02:01:44;2.84;72.75
69543;SHT31;56762;49.494;11.768;2023-03-07T02:04:16;2.81;72.63
69543;SHT31;56762;49.494;11.768;2023-03-07T02:06:44;2.83;72.48
69543;SHT31;56762;49.494;11.768;2023-03-07T02:09:16;2.76;73.15
69543;SHT31;56762;49.494;11.768;2023-03-07T02:11:46;2.67;73.25
69543;SHT31;56762;49.494;11.768;2023-03-07T02:14:14;2.61;73.00
69543;SHT31;56762;49.494;11.768;2023-03-07T02:16:44;2.60;73.42
69543;SHT31;56762;49.494;11.768;2023-03-07T02:19:31;2.67;73.49
69543;SHT31;56762;49.494;11.768;2023-03-07T02:22:07;2.69;73.33
69543;SHT31;56762;49.494;11.768;2023-03-07T02:24:41;2.69;73.71
69543;SHT31;56762;49.494;11.768;2023-03-07T02:27:11;2.69;73.32
69543;SHT31;56762;49.494;11.768;2023-03-07T02:29:40;2.77;72.90
69543;SHT31;56762;49.494;11.768;2023-03-07T02:32:08;2.73;73.49
69543;SHT31;56762;49.494;11.768;2023-03-07T02:34:36;2.79;72.88
69543;SHT31;56762;49.494;11.768;2023-03-07T02:37:05;2.81;72.62
69543;SHT31;56762;49.494;11.768;2023-03-07T02:39:35;2.72;72.77
69543;SHT31;56762;49.494;11.768;2023-03-07T02:42:06;2.76;72.51
69543;SHT31;56762;49.494;11.768;2023-03-07T02:44:36;2.73;72.41
69543;SHT31;56762;49.494;11.768;2023-03-07T02:47:05;2.69;72.89
69543;SHT31;56762;49.494;11.768;2023-03-07T02:49:34;2.70;72.84
69543;SHT31;56762;49.494;11.768;2023-03-07T02:52:02;2.73;73.25
69543;SHT31;56762;49.494;11.768;2023-03-07T02:54:30;2.84;72.48
69543;SHT31;56762;49.494;11.768;2023-03-07T02:56:58;2.84;72.52
69543;SHT31;56762;49.494;11.768;2023-03-07T02:59:26;2.86;72.27
69543;SHT31;56762;49.494;11.768;2023-03-07T03:01:55;2.79;72.27
69543;SHT31;56762;49.494;11.768;2023-03-07T03:04:24;2.81;72.35
69543;SHT31;56762;49.494;11.768;2023-03-07T03:06:52;2.80;71.78
69543;SHT31;56762;49.494;11.768;2023-03-07T03:09:20;2.81;72.37
69543;SHT31;56762;49.494;11.768;2023-03-07T03:11:48;2.89;71.78
69543;SHT31;56762;49.494;11.768;2023-03-07T03:14:16;2.86;71.93
69543;SHT31;56762;49.494;11.768;2023-03-07T03:16:43;2.89;71.66
69543;SHT31;56762;49.494;11.768;2023-03-07T03:19:13;2.87;71.90
69543;SHT31;56762;49.494;11.768;2023-03-07T03:21:41;2.77;72.24
69543;SHT31;56762;49.494;11.768;2023-03-07T03:24:09;2.73;72.69
69543;SHT31;56762;49.494;11.768;2023-03-07T03:26:37;2.64;72.99
69543;SHT31;56762;49.494;11.768;2023-03-07T03:29:05;2.56;73.69
69543;SHT31;56762;49.494;11.768;2023-03-07T03:31:33;2.49;74.04
69543;SHT31;56762;49.494;11.768;2023-03-07T03:34:01;2.49;74.31
69543;SHT31;56762;49.494;11.768;2023-03-07T03:36:32;2.53;74.56
69543;SHT31;56762;49.494;11.768;2023-03-07T03:39:00;2.48;74.82
69543;SHT31;56762;49.494;11.768;2023-03-07T03:41:28;2.42;75.61
69543;SHT31;56762;49.494;11.768;2023-03-07T03:43:56;2.40;75.68
69543;SHT31;56762;49.494;11.768;2023-03-07T03:46:23;2.39;76.05
69543;SHT31;56762;49.494;11.768;2023-03-07T03:48:53;2.43;76.33
69543;SHT31;56762;49.494;11.768;2023-03-07T03:51:21;2.39;76.89
69543;SHT31;56762;49.494;11.768;2023-03-07T03:53:51;2.42;77.18
69543;SHT31;56762;49.494;11.768;2023-03-07T03:56:21;2.38;77.61
69543;SHT31;56762;49.494;11.768;2023-03-07T03:58:50;2.29;78.23
69543;SHT31;56762;49.494;11.768;2023-03-07T04:01:20;2.26;79.03
69543;SHT31;56762;49.494;11.768;2023-03-07T04:03:50;2.29;78.95
69543;SHT31;56762;49.494;11.768;2023-03-07T04:06:20;2.25;79.21
69543;SHT31;56762;49.494;11.768;2023-03-07T04:08:49;2.17;79.54
69543;SHT31;56762;49.494;11.768;2023-03-07T04:11:19;2.17;79.86
69543;SHT31;56762;49.494;11.768;2023-03-07T04:13:47;2.21;79.71
69543;SHT31;56762;49.494;11.768;2023-03-07T04:16:15;2.19;80.18
69543;SHT31;56762;49.494;11.768;2023-03-07T04:18:43;2.15;79.86
69543;SHT31;56762;49.494;11.768;2023-03-07T04:21:11;2.21;80.01
69543;SHT31;56762;49.494;11.768;2023-03-07T04:23:39;2.24;79.73
69543;SHT31;56762;49.494;11.768;2023-03-07T04:26:08;2.30;79.71
69543;SHT31;56762;49.494;11.768;2023-03-07T04:28:40;2.24;79.87
69543;SHT31;56762;49.494;11.768;2023-03-07T04:31:13;2.24;79.92
69543;SHT31;56762;49.494;11.768;2023-03-07T04:33:41;2.22;80.36
69543;SHT31;56762;49.494;11.768;2023-03-07T04:36:10;2.24;80.19
69543;SHT31;56762;49.494;11.768;2023-03-07T04:38:38;2.21;80.45
69543;SHT31;56762;49.494;11.768;2023-03-07T04:41:08;2.17;80.82
69543;SHT31;56762;49.494;11.768;2023-03-07T04:43:39;2.21;80.96
69543;SHT31;56762;49.494;11.768;2023-03-07T04:46:08;2.19;81.56
69543;SHT31;56762;49.494;11.768;2023-03-07T04:48:36;2.21;81.23
69543;SHT31;56762;49.494;11.768;2023-03-07T04:51:04;2.19;81.23
69543;SHT31;56762;49.494;11.768;2023-03-07T04:53:32;2.24;81.36
69543;SHT31;56762;49.494;11.768;2023-03-07T04:56:02;2.21;81.76
69543;SHT31;56762;49.494;11.768;2023-03-07T04:58:30;2.21;81.50
69543;SHT31;56762;49.494;11.768;2023-03-07T05:01:01;2.25;81.62
69543;SHT31;56762;49.494;11.768;2023-03-07T05:03:29;2.19;81.20
69543;SHT31;56762;49.494;11.768;2023-03-07T05:06:00;2.24;81.43
69543;SHT31;56762;49.494;11.768;2023-03-07T05:08:29;2.19;81.58
69543;SHT31;56762;49.494;11.768;2023-03-07T05:10:57;2.24;81.51
69543;SHT31;56762;49.494;11.768;2023-03-07T05:13:25;2.18;81.73
69543;SHT31;56762;49.494;11.768;2023-03-07T05:15:55;2.22;81.65
69543;SHT31;56762;49.494;11.768;2023-03-07T05:18:25;2.19;81.32
69543;SHT31;56762;49.494;11.768;2023-03-07T05:20:53;2.18;80.83
69543;SHT31;56762;49.494;11.768;2023-03-07T05:23:21;2.19;80.92
69543;SHT31;56762;49.494;11.768;2023-03-07T05:25:49;2.22;80.82
69543;SHT31;56762;49.494;11.768;2023-03-07T05:28:17;2.25;80.33
69543;SHT31;56762;49.494;11.768;2023-03-07T05:30:45;2.36;79.72
69543;SHT31;56762;49.494;11.768;2023-03-07T05:33:13;2.36;79.01
69543;SHT31;56762;49.494;11.768;2023-03-07T05:35:42;2.38;79.07
69543;SHT31;56762;49.494;11.768;2023-03-07T05:38:10;2.42;78.98
69543;SHT31;56762;49.494;11.768;2023-03-07T05:40:39;2.38;78.82
69543;SHT31;56762;49.494;11.768;2023-03-07T05:43:07;2.35;78.36
69543;SHT31;56762;49.494;11.768;2023-03-07T05:45:35;2.42;78.56
69543;SHT31;56762;49.494;11.768;2023-03-07T05:48:03;2.45;77.85
69543;SHT31;56762;49.494;11.768;2023-03-07T05:50:31;2.45;77.97
69543;SHT31;56762;49.494;11.768;2023-03-07T05:53:00;2.42;77.98
69543;SHT31;56762;49.494;11.768;2023-03-07T05:55:28;2.46;77.83
69543;SHT31;56762;49.494;11.768;2023-03-07T05:57:57;2.48;77.32
69543;SHT31;56762;49.494;11.768;2023-03-07T06:00:24;2.42;77.30
69543;SHT31;56762;49.494;11.768;2023-03-07T06:02:52;2.42;77.29
69543;SHT31;56762;49.494;11.768;2023-03-07T06:05:20;2.40;77.54
69543;SHT31;56762;49.494;11.768;2023-03-07T06:07:50;2.46;77.80
69543;SHT31;56762;49.494;11.768;2023-03-07T06:10:19;2.53;77.31
69543;SHT31;56762;49.494;11.768;2023-03-07T06:12:48;2.56;76.66
69543;SHT31;56762;49.494;11.768;2023-03-07T06:15:16;2.52;77.20
69543;SHT31;56762;49.494;11.768;2023-03-07T06:17:44;2.53;76.91
69543;SHT31;56762;49.494;11.768;2023-03-07T06:20:13;2.54;76.59
69543;SHT31;56762;49.494;11.768;2023-03-07T06:22:41;2.57;76.59
69543;SHT31;56762;49.494;11.768;2023-03-07T06:25:09;2.60;76.69
69543;SHT31;56762;49.494;11.768;2023-03-07T06:27:39;2.67;76.39
69543;SHT31;56762;49.494;11.768;2023-03-07T06:30:08;2.64;76.52
69543;SHT31;56762;49.494;11.768;2023-03-07T06:32:37;2.70;76.68
69543;SHT31;56762;49.494;11.768;2023-03-07T06:35:05;2.66;76.82
69543;SHT31;56762;49.494;11.768;2023-03-07T06:37:34;2.69;76.64
69543;SHT31;56762;49.494;11.768;2023-03-07T06:40:02;2.76;76.38
69543;SHT31;56762;49.494;11.768;2023-03-07T06:42:31;2.75;76.38
69543;SHT31;56762;49.494;11.768;2023-03-07T06:45:01;2.79;76.49
69543;SHT31;56762;49.494;11.768;2023-03-07T06:47:29;2.79;76.66
69543;SHT31;56762;49.494;11.768;2023-03-07T06:49:57;2.83;76.82
69543;SHT31;56762;49.494;11.768;2023-03-07T06:52:25;2.87;76.67
69543;SHT31;56762;49.494;11.768;2023-03-07T06:54:52;2.91;76.75
69543;SHT31;56762;49.494;11.768;2023-03-07T06:57:20;2.96;75.84
69543;SHT31;56762;49.494;11.768;2023-03-07T06:59:48;3.00;76.43
69543;SHT31;56762;49.494;11.768;2023-03-07T07:02:17;3.01;75.94
69543;SHT31;56762;49.494;11.768;2023-03-07T07:04:45;3.03;76.17
69543;SHT31;56762;49.494;11.768;2023-03-07T07:07:13;3.08;76.25
69543;SHT31;56762;49.494;11.768;2023-03-07T07:09:41;3.12;75.74
69543;SHT31;56762;49.494;11.768;2023-03-07T07:12:09;3.18;75.43
69543;SHT31;56762;49.494;11.768;2023-03-07T07:14:37;3.12;75.94
69543;SHT31;56762;49.494;11.768;2023-03-07T07:17:05;3.15;75.81
69543;SHT31;56762;49.494;11.768;2023-03-07T07:19:34;3.14;75.73
69543;SHT31;56762;49.494;11.768;2023-03-07T07:22:02;3.15;75.51
69543;SHT31;56762;49.494;11.768;2023-03-07T07:24:30;3.14;75.53
69543;SHT31;56762;49.494;11.768;2023-03-07T07:26:57;3.21;75.95
69543;SHT31;56762;49.494;11.768;2023-03-07T07:29:25;3.17;75.82
69543;SHT31;56762;49.494;11.768;2023-03-07T07:31:54;3.15;76.07
69543;SHT31;56762;49.494;11.768;2023-03-07T07:34:22;3.18;75.78
69543;SHT31;56762;49.494;11.768;2023-03-07T07:36:51;3.20;76.58
69543;SHT31;56762;49.494;11.768;2023-03-07T07:39:19;3.22;76.30
69543;SHT31;56762;49.494;11.768;2023-03-07T07:41:47;3.31;75.30
69543;SHT31;56762;49.494;11.768;2023-03-07T07:44:14;3.31;75.64
69543;SHT31;56762;49.494;11.768;2023-03-07T07:46:42;3.32;75.86
69543;SHT31;56762;49.494;11.768;2023-03-07T07:49:10;3.35;74.87
69543;SHT31;56762;49.494;11.768;2023-03-07T07:51:37;3.38;75.06
69543;SHT31;56762;49.494;11.768;2023-03-07T07:54:08;3.42;75.12
69543;SHT31;56762;49.494;11.768;2023-03-07T07:56:35;3.46;75.30
69543;SHT31;56762;49.494;11.768;2023-03-07T07:59:03;3.56;74.47
69543;SHT31;56762;49.494;11.768;2023-03-07T08:01:31;3.55;74.59
69543;SHT31;56762;49.494;11.768;2023-03-07T08:03:58;3.63;74.66
69543;SHT31;56762;49.494;11.768;2023-03-07T08:06:27;3.69;74.95
69543;SHT31;56762;49.494;11.768;2023-03-07T08:08:55;3.80;74.78
69543;SHT31;56762;49.494;11.768;2023-03-07T08:11:24;3.79;75.28
69543;SHT31;56762;49.494;11.768;2023-03-07T08:13:52;3.76;74.56
69543;SHT31;56762;49.494;11.768;2023-03-07T08:16:21;3.82;74.98
69543;SHT31;56762;49.494;11.768;2023-03-07T08:18:50;3.83;75.39
69543;SHT31;56762;49.494;11.768;2023-03-07T08:21:19;3.86;75.39
69543;SHT31;56762;49.494;11.768;2023-03-07T08:23:46;3.83;75.33
69543;SHT31;56762;49.494;11.768;2023-03-07T08:26:14;3.86;75.26
69543;SHT31;56762;49.494;11.768;2023-03-07T08:28:44;3.89;75.16
69543;SHT31;56762;49.494;11.768;2023-03-07T08:31:13;3.94;74.56
69543;SHT31;56762;49.494;11.768;2023-03-07T08:33:42;3.94;74.90
69543;SHT31;56762;49.494;11.768;2023-03-07T08:36:10;3.93;75.28
69543;SHT31;56762;49.494;11.768;2023-03-07T08:38:37;3.94;75.06
69543;SHT31;56762;49.494;11.768;2023-03-07T08:41:07;3.96;75.16
69543;SHT31;56762;49.494;11.768;2023-03-07T08:43:36;3.94;75.20
69543;SHT31;56762;49.494;11.768;2023-03-07T08:46:06;3.89;75.35
69543;SHT31;56762;49.494;11.768;2023-03-07T08:48:34;3.92;74.88
69543;SHT31;56762;49.494;11.768;2023-03-07T08:51:06;3.97;74.74
69543;SHT31;56762;49.494;11.768;2023-03-07T08:53:35;3.93;75.10
69543;SHT31;56762;49.494;11.768;2023-03-07T08:56:05;3.96;75.36
69543;SHT31;56762;49.494;11.768;2023-03-07T08:58:33;3.99;74.40
69543;SHT31;56762;49.494;11.768;2023-03-07T09:01:02;4.09;74.87
69543;SHT31;56762;49.494;11.768;2023-03-07T09:03:32;4.13;74.51
69543;SHT31;56762;49.494;11.768;2023-03-07T09:06:01;4.27;73.95
69543;SHT31;56762;49.494;11.768;2023-03-07T09:08:29;4.31;72.90
69543;SHT31;56762;49.494;11.768;2023-03-07T09:10:58;4.40;73.34
69543;SHT31;56762;49.494;11.768;2023-03-07T09:13:26;4.48;73.16
69543;SHT31;56762;49.494;11.768;2023-03-07T09:15:54;4.54;72.39
69543;SHT31;56762;49.494;11.768;2023-03-07T09:18:21;4.60;72.03
69543;SHT31;56762;49.494;11.768;2023-03-07T09:20:50;4.58;72.10
69543;SHT31;56762;49.494;11.768;2023-03-07T09:23:18;4.62;71.79
69543;SHT31;56762;49.494;11.768;2023-03-07T09:25:46;4.69;71.50
69543;SHT31;56762;49.494;11.768;2023-03-07T09:28:14;4.73;71.02
69543;SHT31;56762;49.494;11.768;2023-03-07T09:30:42;4.81;70.92
69543;SHT31;56762;49.494;11.768;2023-03-07T09:33:10;4.79;70.02
69543;SHT31;56762;49.494;11.768;2023-03-07T09:35:38;4.78;70.57
69543;SHT31;56762;49.494;11.768;2023-03-07T09:38:07;4.81;70.44
69543;SHT31;56762;49.494;11.768;2023-03-07T09:40:37;4.75;70.22
69543;SHT31;56762;49.494;11.768;2023-03-07T09:43:09;4.79;71.03
69543;SHT31;56762;49.494;11.768;2023-03-07T09:45:55;4.78;71.31
69543;SHT31;56762;49.494;11.768;2023-03-07T09:49:02;4.85;70.55
69543;SHT31;56762;49.494;11.768;2023-03-07T09:51:36;4.92;69.53
69543;SHT31;56762;49.494;11.768;2023-03-07T09:54:10;4.89;70.06
69543;SHT31;56762;49.494;11.768;2023-03-07T09:56:42;5.00;70.55
69543;SHT31;56762;49.494;11.768;2023-03-07T09:59:16;5.11;70.19
69543;SHT31;56762;49.494;11.768;2023-03-07T10:01:52;5.23;69.42
69543;SHT31;56762;49.494;11.768;2023-03-07T10:04:26;5.30;69.18
69543;SHT31;56762;49.494;11.768;2023-03-07T10:06:57;5.37;68.55
69543;SHT31;56762;49.494;11.768;2023-03-07T10:09:27;5.32;68.43
69543;SHT31;56762;49.494;11.768;2023-03-07T10:12:25;5.24;68.48
69543;SHT31;56762;49.494;11.768;2023-03-07T10:15:08;5.20;67.97
69543;SHT31;56762;49.494;11.768;2023-03-07T10:17:54;5.29;68.71
69543;SHT31;56762;49.494;11.768;2023-03-07T10:20:34;5.36;67.79
69543;SHT31;56762;49.494;11.768;2023-03-07T10:23:18;5.43;68.01
69543;SHT31;56762;49.494;11.768;2023-03-07T10:25:52;5.43;67.51
69543;SHT31;56762;49.494;11.768;2023-03-07T10:28:23;5.48;66.81
69543;SHT31;56762;49.494;11.768;2023-03-07T10:30:57;5.48;67.43
69543;SHT31;56762;49.494;11.768;2023-03-07T10:33:27;5.50;66.96
69543;SHT31;56762;49.494;11.768;2023-03-07T10:36:02;5.48;67.23
69543;SHT31;56762;49.494;11.768;2023-03-07T10:38:36;5.51;67.04
69543;SHT31;56762;49.494;11.768;2023-03-07T10:41:10;5.58;67.18
69543;SHT31;56762;49.494;11.768;2023-03-07T10:43:41;5.63;67.01
69543;SHT31;56762;49.494;11.768;2023-03-07T10:46:11;5.57;66.75
69543;SHT31;56762;49.494;11.768;2023-03-07T10:48:51;5.61;66.22
69543;SHT31;56762;49.494;11.768;2023-03-07T10:51:36;5.74;66.57
69543;SHT31;56762;49.494;11.768;2023-03-07T10:54:11;5.79;66.24
69543;SHT31;56762;49.494;11.768;2023-03-07T10:57:01;5.91;66.35
69543;SHT31;56762;49.494;11.768;2023-03-07T10:59:30;6.02;65.26
69543;SHT31;56762;49.494;11.768;2023-03-07T11:01:59;6.12;64.45
69543;SHT31;56762;49.494;11.768;2023-03-07T11:04:29;6.25;63.90
69543;SHT31;56762;49.494;11.768;2023-03-07T11:07:23;6.42;63.96
69543;SHT31;56762;49.494;11.768;2023-03-07T11:09:54;6.43;62.50
69543;SHT31;56762;49.494;11.768;2023-03-07T11:12:26;6.46;62.59
69543;SHT31;56762;49.494;11.768;2023-03-07T11:14:55;6.50;62.15
69543;SHT31;56762;49.494;11.768;2023-03-07T11:17:26;6.66;61.48
69543;SHT31;56762;49.494;11.768;2023-03-07T11:19:56;6.66;61.33
69543;SHT31;56762;49.494;11.768;2023-03-07T11:22:27;6.74;61.54
69543;SHT31;56762;49.494;11.768;2023-03-07T11:24:59;6.74;61.01
69543;SHT31;56762;49.494;11.768;2023-03-07T11:27:35;6.73;60.66
69543;SHT31;56762;49.494;11.768;2023-03-07T11:30:18;6.73;60.75
69543;SHT31;56762;49.494;11.768;2023-03-07T11:33:02;6.70;61.68
69543;SHT31;56762;49.494;11.768;2023-03-07T11:35:49;6.57;61.48
69543;SHT31;56762;49.494;11.768;2023-03-07T11:38:38;6.44;61.05
69543;SHT31;56762;49.494;11.768;2023-03-07T11:41:10;6.37;61.53
69543;SHT31;56762;49.494;11.768;2023-03-07T11:43:50;6.40;61.85
69543;SHT31;56762;49.494;11.768;2023-03-07T11:46:26;6.40;60.90
69543;SHT31;56762;49.494;11.768;2023-03-07T11:49:07;6.29;61.16
69543;SHT31;56762;49.494;11.768;2023-03-07T11:51:48;6.13;61.85
69543;SHT31;56762;49.494;11.768;2023-03-07T11:54:24;6.15;61.74
69543;SHT31;56762;49.494;11.768;2023-03-07T11:56:59;6.21;61.85
69543;SHT31;56762;49.494;11.768;2023-03-07T11:59:52;6.23;60.76
69543;SHT31;56762;49.494;11.768;2023-03-07T12:02:36;6.35;60.27
69543;SHT31;56762;49.494;11.768;2023-03-07T12:05:29;6.49;60.34
69543;SHT31;56762;49.494;11.768;2023-03-07T12:08:15;6.49;60.32
69543;SHT31;56762;49.494;11.768;2023-03-07T12:10:56;6.40;59.45
69543;SHT31;56762;49.494;11.768;2023-03-07T12:13:36;6.39;60.14
69543;SHT31;56762;49.494;11.768;2023-03-07T12:16:13;6.28;59.68
69543;SHT31;56762;49.494;11.768;2023-03-07T12:19:06;6.25;59.89
69543;SHT31;56762;49.494;11.768;2023-03-07T12:21:47;6.19;59.56
69543;SHT31;56762;49.494;11.768;2023-03-07T12:24:23;6.19;59.19
69543;SHT31;56762;49.494;11.768;2023-03-07T12:26:55;6.16;59.75
69543;SHT31;56762;49.494;11.768;2023-03-07T12:29:31;6.16;59.18
69543;SHT31;56762;49.494;11.768;2023-03-07T12:32:06;5.99;59.51
69543;SHT31;56762;49.494;11.768;2023-03-07T12:34:39;6.01;60.39
69543;SHT31;56762;49.494;11.768;2023-03-07T12:37:12;6.06;60.59
69543;SHT31;56762;49.494;11.768;2023-03-07T12:39:47;6.12;59.68
69543;SHT31;56762;49.494;11.768;2023-03-07T12:42:25;6.11;59.21
69543;SHT31;56762;49.494;11.768;2023-03-07T12:44:57;6.06;59.51
69543;SHT31;56762;49.494;11.768;2023-03-07T12:47:31;6.11;58.65
69543;SHT31;56762;49.494;11.768;2023-03-07T12:50:03;6.05;57.87
69543;SHT31;56762;49.494;11.768;2023-03-07T12:52:38;6.11;58.25
69543;SHT31;56762;49.494;11.768;2023-03-07T12:55:17;6.06;57.97
69543;SHT31;56762;49.494;11.768;2023-03-07T12:57:59;5.98;58.27
69543;SHT31;56762;49.494;11.768;2023-03-07T13:00:31;5.91;58.92
69543;SHT31;56762;49.494;11.768;2023-03-07T13:03:04;5.82;59.00
69543;SHT31;56762;49.494;11.768;2023-03-07T13:05:33;5.81;59.33
69543;SHT31;56762;49.494;11.768;2023-03-07T13:08:04;5.87;59.48
69543;SHT31;56762;49.494;11.768;2023-03-07T13:10:33;5.84;59.41
69543;SHT31;56762;49.494;11.768;2023-03-07T13:13:01;5.82;59.87
69543;SHT31;56762;49.494;11.768;2023-03-07T13:16:02;5.79;59.13
69543;SHT31;56762;49.494;11.768;2023-03-07T13:18:32;5.77;59.41
69543;SHT31;56762;49.494;11.768;2023-03-07T13:21:11;5.78;58.39
69543;SHT31;56762;49.494;11.768;2023-03-07T13:23:39;5.84;58.72
69543;SHT31;56762;49.494;11.768;2023-03-07T13:26:11;5.87;58.95
69543;SHT31;56762;49.494;11.768;2023-03-07T13:28:46;5.85;58.11
69543;SHT31;56762;49.494;11.768;2023-03-07T13:31:39;5.82;57.31
69543;SHT31;56762;49.494;11.768;2023-03-07T13:37:54;5.81;56.94
69543;SHT31;56762;49.494;11.768;2023-03-07T13:40:53;5.79;56.98
69543;SHT31;56762;49.494;11.768;2023-03-07T13:43:58;5.82;56.80
69543;SHT31;56762;49.494;11.768;2023-03-07T13:46:45;5.84;57.10
69543;SHT31;56762;49.494;11.768;2023-03-07T13:49:41;5.79;57.81
69543;SHT31;56762;49.494;11.768;2023-03-07T13:52:32;5.79;56.21
69543;SHT31;56762;49.494;11.768;2023-03-07T13:55:23;5.74;55.70
69543;SHT31;56762;49.494;11.768;2023-03-07T13:57:52;5.78;55.68
69543;SHT31;56762;49.494;11.768;2023-03-07T14:00:32;5.78;55.91
69543;SHT31;56762;49.494;11.768;2023-03-07T14:03:01;5.71;55.05
69543;SHT31;56762;49.494;11.768;2023-03-07T14:05:32;5.68;56.26
69543;SHT31;56762;49.494;11.768;2023-03-07T14:08:01;5.57;56.69
69543;SHT31;56762;49.494;11.768;2023-03-07T14:10:30;5.58;57.33
69543;SHT31;56762;49.494;11.768;2023-03-07T14:13:25;5.60;57.50
69543;SHT31;56762;49.494;11.768;2023-03-07T14:16:04;5.55;58.18
69543;SHT31;56762;49.494;11.768;2023-03-07T14:18:43;5.43;57.81
69543;SHT31;56762;49.494;11.768;2023-03-07T14:21:19;5.40;57.91
69543;SHT31;56762;49.494;11.768;2023-03-07T14:24:09;5.37;59.14
69543;SHT31;56762;49.494;11.768;2023-03-07T14:26:42;5.39;58.02
69543;SHT31;56762;49.494;11.768;2023-03-07T14:29:15;5.40;57.88
69543;SHT31;56762;49.494;11.768;2023-03-07T14:31:46;5.27;57.93
69543;SHT31;56762;49.494;11.768;2023-03-07T14:34:16;5.32;59.59
69543;SHT31;56762;49.494;11.768;2023-03-07T14:36:48;5.36;59.11
69543;SHT31;56762;49.494;11.768;2023-03-07T14:39:16;5.44;58.31
69543;SHT31;56762;49.494;11.768;2023-03-07T14:41:50;5.50;58.30
69543;SHT31;56762;49.494;11.768;2023-03-07T14:44:46;5.53;57.46
69543;SHT31;56762;49.494;11.768;2023-03-07T14:47:29;5.57;57.45
69543;SHT31;56762;49.494;11.768;2023-03-07T14:50:08;5.64;58.07
69543;SHT31;56762;49.494;11.768;2023-03-07T14:52:37;5.71;56.35
69543;SHT31;56762;49.494;11.768;2023-03-07T14:55:13;5.77;56.81
69543;SHT31;56762;49.494;11.768;2023-03-07T14:57:47;5.87;56.53
69543;SHT31;56762;49.494;11.768;2023-03-07T15:00:24;5.85;56.06
69543;SHT31;56762;49.494;11.768;2023-03-07T15:02:58;5.87;55.60
69543;SHT31;56762;49.494;11.768;2023-03-07T15:05:32;5.75;55.10
69543;SHT31;56762;49.494;11.768;2023-03-07T15:08:00;5.75;55.47
69543;SHT31;56762;49.494;11.768;2023-03-07T15:10:32;5.75;55.51
69543;SHT31;56762;49.494;11.768;2023-03-07T15:13:07;5.67;55.79
69543;SHT31;56762;49.494;11.768;2023-03-07T15:15:41;5.79;56.21
69543;SHT31;56762;49.494;11.768;2023-03-07T15:18:17;5.75;56.43
69543;SHT31;56762;49.494;11.768;2023-03-07T15:20:47;5.78;57.20
69543;SHT31;56762;49.494;11.768;2023-03-07T15:23:19;5.68;56.22
69543;SHT31;56762;49.494;11.768;2023-03-07T15:25:51;5.68;55.97
69543;SHT31;56762;49.494;11.768;2023-03-07T15:28:23;5.61;55.61
69543;SHT31;56762;49.494;11.768;2023-03-07T15:30:53;5.46;56.01
69543;SHT31;56762;49.494;11.768;2023-03-07T15:33:23;5.44;56.66
69543;SHT31;56762;49.494;11.768;2023-03-07T15:36:07;5.42;56.93
69543;SHT31;56762;49.494;11.768;2023-03-07T15:38:37;5.48;55.50
69543;SHT31;56762;49.494;11.768;2023-03-07T15:41:23;5.42;55.74
69543;SHT31;56762;49.494;11.768;2023-03-07T15:44:04;5.42;55.97
69543;SHT31;56762;49.494;11.768;2023-03-07T15:46:33;5.39;55.85
69543;SHT31;56762;49.494;11.768;2023-03-07T15:49:02;5.36;55.60
69543;SHT31;56762;49.494;11.768;2023-03-07T15:51:34;5.29;55.78
69543;SHT31;56762;49.494;11.768;2023-03-07T15:54:22;5.20;56.02
69543;SHT31;56762;49.494;11.768;2023-03-07T15:56:55;5.18;56.12
69543;SHT31;56762;49.494;11.768;2023-03-07T15:59:29;5.11;56.08
69543;SHT31;56762;49.494;11.768;2023-03-07T16:05:01;5.06;55.77
69543;SHT31;56762;49.494;11.768;2023-03-07T16:07:29;5.05;56.14